sensor_id;sensor_type;location;lat;lon;timestamp;P1;durP1;ratioP1;P2;durP2;ratioP2
61397;SDS011;47267;48.130;-2.040;2023-09-19T00:01:32;2.65;;;1.02;;
61397;SDS011;47267;48.130;-2.040;2023-09-19T00:03:58;1.65;;;0.75;;
61397;SDS011;47267;48.130;-2.040;2023-09-19T00:06:24;0.98;;;0.50;;
61397;SDS011;47267;48.130;-2.040;2023-09-19T00:08:51;1.55;;;0.90;;
61397;SDS011;47267;48.130;-2.040;2023-09-19T00:11:17;1.98;;;0.68;;
61397;SDS011;47267;48.130;-2.040;2023-09-19T00:13:43;1.48;;;0.70;;
61397;SDS011;47267;48.130;-2.040;2023-09-19T00:16:09;1.75;;;0.63;;
61397;SDS011;47267;48.130;-2.040;2023-09-19T00:18:36;0.70;;;0.50;;
61397;SDS011;47267;48.130;-2.040;2023-09-19T00:21:03;1.10;;;0.55;;
61397;SDS011;47267;48.130;-2.040;2023-09-19T00:23:32;1.17;;;0.68;;
61397;SDS011;47267;48.130;-2.040;2023-09-19T00:25:58;1.67;;;0.88;;
61397;SDS011;47267;48.130;-2.040;2023-09-19T00:28:24;0.85;;;0.52;;
61397;SDS011;47267;48.130;-2.040;2023-09-19T00:30:51;1.02;;;0.60;;
61397;SDS011;47267;48.130;-2.040;2023-09-19T00:33:16;1.10;;;0.50;;
61397;SDS011;47267;48.130;-2.040;2023-09-19T00:35:48;1.05;;;0.50;;
61397;SDS011;47267;48.130;-2.040;2023-09-19T00:38:14;1.75;;;0.70;;
61397;SDS011;47267;48.130;-2.040;2023-09-19T00:40:45;1.27;;;0.60;;
61397;SDS011;47267;48.130;-2.040;2023-09-19T00:43:11;1.70;;;0.47;;
61397;SDS011;47267;48.130;-2.040;2023-09-19T00:45:37;0.93;;;0.60;;
61397;SDS011;47267;48.130;-2.040;2023-09-19T00:50:34;1.77;;;0.70;;
61397;SDS011;47267;48.130;-2.040;2023-09-19T00:53:00;0.90;;;0.50;;
61397;SDS011;47267;48.130;-2.040;2023-09-19T00:55:33;1.58;;;0.73;;
61397;SDS011;47267;48.130;-2.040;2023-09-19T00:57:59;1.17;;;0.50;;
61397;SDS011;47267;48.130;-2.040;2023-09-19T01:00:25;1.15;;;0.70;;
61397;SDS011;47267;48.130;-2.040;2023-09-19T01:02:52;1.50;;;0.70;;
61397;SDS011;47267;48.130;-2.040;2023-09-19T01:05:17;1.48;;;0.60;;
61397;SDS011;47267;48.130;-2.040;2023-09-19T01:07:43;1.42;;;0.57;;
61397;SDS011;47267;48.130;-2.040;2023-09-19T01:10:11;1.23;;;0.50;;
61397;SDS011;47267;48.130;-2.040;2023-09-19T01:15:20;1.42;;;0.60;;
61397;SDS011;47267;48.130;-2.040;2023-09-19T01:18:08;2.15;;;0.70;;
61397;SDS011;47267;48.130;-2.040;2023-09-19T01:28:45;1.58;;;0.70;;
61397;SDS011;47267;48.130;-2.040;2023-09-19T01:31:28;0.93;;;0.60;;
61397;SDS011;47267;48.130;-2.040;2023-09-19T01:34:01;2.10;;;0.65;;
61397;SDS011;47267;48.130;-2.040;2023-09-19T01:36:32;1.67;;;0.65;;
61397;SDS011;47267;48.130;-2.040;2023-09-19T01:39:01;1.08;;;0.60;;
61397;SDS011;47267;48.130;-2.040;2023-09-19T01:41:41;1.42;;;0.70;;
61397;SDS011;47267;48.130;-2.040;2023-09-19T01:44:09;0.98;;;0.50;;
61397;SDS011;47267;48.130;-2.040;2023-09-19T01:46:43;1.40;;;0.65;;
61397;SDS011;47267;48.130;-2.040;2023-09-19T01:54:32;1.95;;;0.77;;
61397;SDS011;47267;48.130;-2.040;2023-09-19T01:57:07;1.30;;;0.50;;
61397;SDS011;47267;48.130;-2.040;2023-09-19T01:59:45;0.90;;;0.60;;
61397;SDS011;47267;48.130;-2.040;2023-09-19T02:02:17;1.25;;;0.60;;
61397;SDS011;47267;48.130;-2.040;2023-09-19T02:04:46;1.27;;;0.52;;
61397;SDS011;47267;48.130;-2.040;2023-09-19T02:07:13;1.33;;;0.70;;
61397;SDS011;47267;48.130;-2.040;2023-09-19T02:09:42;1.55;;;0.73;;
61397;SDS011;47267;48.130;-2.040;2023-09-19T02:12:08;1.52;;;0.50;;
61397;SDS011;47267;48.130;-2.040;2023-09-19T02:14:34;1.75;;;0.68;;
61397;SDS011;47267;48.130;-2.040;2023-09-19T02:17:01;0.73;;;0.47;;
61397;SDS011;47267;48.130;-2.040;2023-09-19T02:19:30;2.38;;;0.70;;
61397;SDS011;47267;48.130;-2.040;2023-09-19T02:21:57;1.17;;;0.50;;
61397;SDS011;47267;48.130;-2.040;2023-09-19T02:24:23;1.50;;;0.75;;
61397;SDS011;47267;48.130;-2.040;2023-09-19T02:26:49;1.33;;;0.57;;
61397;SDS011;47267;48.130;-2.040;2023-09-19T02:29:15;1.45;;;0.65;;
61397;SDS011;47267;48.130;-2.040;2023-09-19T02:31:40;0.88;;;0.40;;
61397;SDS011;47267;48.130;-2.040;2023-09-19T02:34:07;2.53;;;0.68;;
61397;SDS011;47267;48.130;-2.040;2023-09-19T02:36:33;1.05;;;0.50;;
61397;SDS011;47267;48.130;-2.040;2023-09-19T02:38:59;2.05;;;0.80;;
61397;SDS011;47267;48.130;-2.040;2023-09-19T02:41:25;1.95;;;0.70;;
61397;SDS011;47267;48.130;-2.040;2023-09-19T02:43:51;2.13;;;0.60;;
61397;SDS011;47267;48.130;-2.040;2023-09-19T02:46:17;1.85;;;0.70;;
61397;SDS011;47267;48.130;-2.040;2023-09-19T02:48:42;2.35;;;0.80;;
61397;SDS011;47267;48.130;-2.040;2023-09-19T02:51:08;1.73;;;0.80;;
61397;SDS011;47267;48.130;-2.040;2023-09-19T02:53:34;2.42;;;0.80;;
61397;SDS011;47267;48.130;-2.040;2023-09-19T02:56:00;1.15;;;0.65;;
61397;SDS011;47267;48.130;-2.040;2023-09-19T02:58:27;1.13;;;0.50;;
61397;SDS011;47267;48.130;-2.040;2023-09-19T03:00:55;1.25;;;0.63;;
61397;SDS011;47267;48.130;-2.040;2023-09-19T03:03:21;1.35;;;0.70;;
61397;SDS011;47267;48.130;-2.040;2023-09-19T03:05:47;1.60;;;0.70;;
61397;SDS011;47267;48.130;-2.040;2023-09-19T03:08:14;1.85;;;0.70;;
61397;SDS011;47267;48.130;-2.040;2023-09-19T03:10:42;2.58;;;0.75;;
61397;SDS011;47267;48.130;-2.040;2023-09-19T03:13:10;1.90;;;0.88;;
61397;SDS011;47267;48.130;-2.040;2023-09-19T03:15:40;1.38;;;0.60;;
61397;SDS011;47267;48.130;-2.040;2023-09-19T03:18:08;1.73;;;0.80;;
61397;SDS011;47267;48.130;-2.040;2023-09-19T03:20:34;1.55;;;0.77;;
61397;SDS011;47267;48.130;-2.040;2023-09-19T03:23:00;1.23;;;0.70;;
61397;SDS011;47267;48.130;-2.040;2023-09-19T03:25:25;2.17;;;0.55;;
61397;SDS011;47267;48.130;-2.040;2023-09-19T03:27:51;1.77;;;0.70;;
61397;SDS011;47267;48.130;-2.040;2023-09-19T03:30:17;1.70;;;0.70;;
61397;SDS011;47267;48.130;-2.040;2023-09-19T03:32:46;1.25;;;0.60;;
61397;SDS011;47267;48.130;-2.040;2023-09-19T03:35:14;0.82;;;0.47;;
61397;SDS011;47267;48.130;-2.040;2023-09-19T03:37:41;2.28;;;0.73;;
61397;SDS011;47267;48.130;-2.040;2023-09-19T03:40:08;2.10;;;0.70;;
61397;SDS011;47267;48.130;-2.040;2023-09-19T03:42:37;1.08;;;0.65;;
61397;SDS011;47267;48.130;-2.040;2023-09-19T03:45:04;1.35;;;0.73;;
61397;SDS011;47267;48.130;-2.040;2023-09-19T03:47:31;3.45;;;0.80;;
61397;SDS011;47267;48.130;-2.040;2023-09-19T03:49:57;1.75;;;0.82;;
61397;SDS011;47267;48.130;-2.040;2023-09-19T03:52:22;0.88;;;0.52;;
61397;SDS011;47267;48.130;-2.040;2023-09-19T03:54:50;1.33;;;0.60;;
61397;SDS011;47267;48.130;-2.040;2023-09-19T03:57:15;1.25;;;0.60;;
61397;SDS011;47267;48.130;-2.040;2023-09-19T03:59:45;1.13;;;0.70;;
61397;SDS011;47267;48.130;-2.040;2023-09-19T04:02:12;0.80;;;0.60;;
61397;SDS011;47267;48.130;-2.040;2023-09-19T04:04:47;2.00;;;0.88;;
61397;SDS011;47267;48.130;-2.040;2023-09-19T04:07:13;2.03;;;0.80;;
61397;SDS011;47267;48.130;-2.040;2023-09-19T04:09:39;1.42;;;0.47;;
61397;SDS011;47267;48.130;-2.040;2023-09-19T04:12:04;2.53;;;0.60;;
61397;SDS011;47267;48.130;-2.040;2023-09-19T04:14:31;2.05;;;0.70;;
61397;SDS011;47267;48.130;-2.040;2023-09-19T04:16:56;2.15;;;0.80;;
61397;SDS011;47267;48.130;-2.040;2023-09-19T04:19:22;2.72;;;0.60;;
61397;SDS011;47267;48.130;-2.040;2023-09-19T04:21:48;1.48;;;0.60;;
61397;SDS011;47267;48.130;-2.040;2023-09-19T04:24:13;2.17;;;0.77;;
61397;SDS011;47267;48.130;-2.040;2023-09-19T04:26:39;2.85;;;0.90;;
61397;SDS011;47267;48.130;-2.040;2023-09-19T04:29:04;1.17;;;0.60;;
61397;SDS011;47267;48.130;-2.040;2023-09-19T04:31:31;2.05;;;0.85;;
61397;SDS011;47267;48.130;-2.040;2023-09-19T04:33:56;2.30;;;0.65;;
61397;SDS011;47267;48.130;-2.040;2023-09-19T04:36:24;2.13;;;0.60;;
61397;SDS011;47267;48.130;-2.040;2023-09-19T04:38:50;2.13;;;0.70;;
61397;SDS011;47267;48.130;-2.040;2023-09-19T04:41:15;1.95;;;0.70;;
61397;SDS011;47267;48.130;-2.040;2023-09-19T04:43:41;1.77;;;0.75;;
61397;SDS011;47267;48.130;-2.040;2023-09-19T04:46:06;1.20;;;0.75;;
61397;SDS011;47267;48.130;-2.040;2023-09-19T04:48:32;2.92;;;0.75;;
61397;SDS011;47267;48.130;-2.040;2023-09-19T04:50:59;2.15;;;0.73;;
61397;SDS011;47267;48.130;-2.040;2023-09-19T04:53:25;2.88;;;0.68;;
61397;SDS011;47267;48.130;-2.040;2023-09-19T04:55:53;1.80;;;0.75;;
61397;SDS011;47267;48.130;-2.040;2023-09-19T04:58:20;1.30;;;0.45;;
61397;SDS011;47267;48.130;-2.040;2023-09-19T05:00:46;2.60;;;1.05;;
61397;SDS011;47267;48.130;-2.040;2023-09-19T05:03:12;1.95;;;0.80;;
61397;SDS011;47267;48.130;-2.040;2023-09-19T05:05:38;1.10;;;0.60;;
61397;SDS011;47267;48.130;-2.040;2023-09-19T05:08:06;2.25;;;0.77;;
61397;SDS011;47267;48.130;-2.040;2023-09-19T05:10:33;1.42;;;0.70;;
61397;SDS011;47267;48.130;-2.040;2023-09-19T05:13:02;1.55;;;0.50;;
61397;SDS011;47267;48.130;-2.040;2023-09-19T05:15:29;1.70;;;0.73;;
61397;SDS011;47267;48.130;-2.040;2023-09-19T05:17:56;3.70;;;1.00;;
61397;SDS011;47267;48.130;-2.040;2023-09-19T05:20:21;1.98;;;0.60;;
61397;SDS011;47267;48.130;-2.040;2023-09-19T05:23:04;2.00;;;0.90;;
61397;SDS011;47267;48.130;-2.040;2023-09-19T05:25:32;2.65;;;0.65;;
61397;SDS011;47267;48.130;-2.040;2023-09-19T05:28:02;2.67;;;0.70;;
61397;SDS011;47267;48.130;-2.040;2023-09-19T05:30:31;1.55;;;0.90;;
61397;SDS011;47267;48.130;-2.040;2023-09-19T05:32:57;1.73;;;0.77;;
61397;SDS011;47267;48.130;-2.040;2023-09-19T05:35:24;2.53;;;0.80;;
61397;SDS011;47267;48.130;-2.040;2023-09-19T05:37:51;4.30;;;1.10;;
61397;SDS011;47267;48.130;-2.040;2023-09-19T05:40:18;3.67;;;1.10;;
61397;SDS011;47267;48.130;-2.040;2023-09-19T05:42:44;2.55;;;1.00;;
61397;SDS011;47267;48.130;-2.040;2023-09-19T05:45:10;4.18;;;1.13;;
61397;SDS011;47267;48.130;-2.040;2023-09-19T05:47:37;5.80;;;1.30;;
61397;SDS011;47267;48.130;-2.040;2023-09-19T05:50:10;3.65;;;1.10;;
61397;SDS011;47267;48.130;-2.040;2023-09-19T05:52:37;5.22;;;1.50;;
61397;SDS011;47267;48.130;-2.040;2023-09-19T05:55:04;3.40;;;1.42;;
61397;SDS011;47267;48.130;-2.040;2023-09-19T05:57:31;6.50;;;1.60;;
61397;SDS011;47267;48.130;-2.040;2023-09-19T05:59:57;5.63;;;1.48;;
61397;SDS011;47267;48.130;-2.040;2023-09-19T06:02:23;6.18;;;1.52;;
61397;SDS011;47267;48.130;-2.040;2023-09-19T06:04:52;5.45;;;1.40;;
61397;SDS011;47267;48.130;-2.040;2023-09-19T06:07:18;4.47;;;1.30;;
61397;SDS011;47267;48.130;-2.040;2023-09-19T06:09:43;4.38;;;1.50;;
61397;SDS011;47267;48.130;-2.040;2023-09-19T06:12:09;5.43;;;1.55;;
61397;SDS011;47267;48.130;-2.040;2023-09-19T06:14:37;4.32;;;1.45;;
61397;SDS011;47267;48.130;-2.040;2023-09-19T06:17:05;4.32;;;1.35;;
61397;SDS011;47267;48.130;-2.040;2023-09-19T06:19:31;3.80;;;1.60;;
61397;SDS011;47267;48.130;-2.040;2023-09-19T06:21:58;6.25;;;1.90;;
61397;SDS011;47267;48.130;-2.040;2023-09-19T06:24:24;5.10;;;1.98;;
61397;SDS011;47267;48.130;-2.040;2023-09-19T06:26:50;5.35;;;1.52;;
61397;SDS011;47267;48.130;-2.040;2023-09-19T06:29:18;5.22;;;2.00;;
61397;SDS011;47267;48.130;-2.040;2023-09-19T06:31:45;5.40;;;1.42;;
61397;SDS011;47267;48.130;-2.040;2023-09-19T06:34:12;5.50;;;1.88;;
61397;SDS011;47267;48.130;-2.040;2023-09-19T06:36:40;7.32;;;1.95;;
61397;SDS011;47267;48.130;-2.040;2023-09-19T06:39:06;7.00;;;2.10;;
61397;SDS011;47267;48.130;-2.040;2023-09-19T06:41:35;6.00;;;1.50;;
61397;SDS011;47267;48.130;-2.040;2023-09-19T06:44:03;6.70;;;1.80;;
61397;SDS011;47267;48.130;-2.040;2023-09-19T06:46:30;5.28;;;1.58;;
61397;SDS011;47267;48.130;-2.040;2023-09-19T06:48:59;4.70;;;1.75;;
61397;SDS011;47267;48.130;-2.040;2023-09-19T06:51:28;5.60;;;1.42;;
61397;SDS011;47267;48.130;-2.040;2023-09-19T06:53:54;6.15;;;1.60;;
61397;SDS011;47267;48.130;-2.040;2023-09-19T06:56:21;5.25;;;1.70;;
61397;SDS011;47267;48.130;-2.040;2023-09-19T06:58:49;4.75;;;1.95;;
61397;SDS011;47267;48.130;-2.040;2023-09-19T07:01:15;6.57;;;1.83;;
61397;SDS011;47267;48.130;-2.040;2023-09-19T07:03:41;3.40;;;1.38;;
61397;SDS011;47267;48.130;-2.040;2023-09-19T07:06:06;4.65;;;1.60;;
61397;SDS011;47267;48.130;-2.040;2023-09-19T07:08:33;5.85;;;1.45;;
61397;SDS011;47267;48.130;-2.040;2023-09-19T07:10:59;4.72;;;1.55;;
61397;SDS011;47267;48.130;-2.040;2023-09-19T07:13:25;3.65;;;1.60;;
61397;SDS011;47267;48.130;-2.040;2023-09-19T07:15:50;3.63;;;1.80;;
61397;SDS011;47267;48.130;-2.040;2023-09-19T07:18:16;5.80;;;1.70;;
61397;SDS011;47267;48.130;-2.040;2023-09-19T07:20:43;6.03;;;2.00;;
61397;SDS011;47267;48.130;-2.040;2023-09-19T07:23:17;5.78;;;1.58;;
61397;SDS011;47267;48.130;-2.040;2023-09-19T07:25:43;4.15;;;1.58;;
61397;SDS011;47267;48.130;-2.040;2023-09-19T07:28:09;6.53;;;1.60;;
61397;SDS011;47267;48.130;-2.040;2023-09-19T07:30:38;5.03;;;1.80;;
61397;SDS011;47267;48.130;-2.040;2023-09-19T07:33:04;6.70;;;1.60;;
61397;SDS011;47267;48.130;-2.040;2023-09-19T07:35:30;5.05;;;1.38;;
61397;SDS011;47267;48.130;-2.040;2023-09-19T07:37:57;3.95;;;1.40;;
61397;SDS011;47267;48.130;-2.040;2023-09-19T07:40:26;4.90;;;1.20;;
61397;SDS011;47267;48.130;-2.040;2023-09-19T07:42:54;3.60;;;1.27;;
61397;SDS011;47267;48.130;-2.040;2023-09-19T07:45:20;6.00;;;1.80;;
61397;SDS011;47267;48.130;-2.040;2023-09-19T07:47:49;3.83;;;1.50;;
61397;SDS011;47267;48.130;-2.040;2023-09-19T07:50:16;7.53;;;1.55;;
61397;SDS011;47267;48.130;-2.040;2023-09-19T07:52:46;4.80;;;1.50;;
61397;SDS011;47267;48.130;-2.040;2023-09-19T07:55:15;4.40;;;1.23;;
61397;SDS011;47267;48.130;-2.040;2023-09-19T07:57:45;5.47;;;1.77;;
61397;SDS011;47267;48.130;-2.040;2023-09-19T08:00:12;4.90;;;1.63;;
61397;SDS011;47267;48.130;-2.040;2023-09-19T08:02:39;5.25;;;1.50;;
61397;SDS011;47267;48.130;-2.040;2023-09-19T08:05:11;5.13;;;1.60;;
61397;SDS011;47267;48.130;-2.040;2023-09-19T08:07:41;4.70;;;1.58;;
61397;SDS011;47267;48.130;-2.040;2023-09-19T08:10:08;3.83;;;1.40;;
61397;SDS011;47267;48.130;-2.040;2023-09-19T08:12:42;4.10;;;1.20;;
61397;SDS011;47267;48.130;-2.040;2023-09-19T08:15:20;3.80;;;1.52;;
61397;SDS011;47267;48.130;-2.040;2023-09-19T08:17:45;3.88;;;1.55;;
61397;SDS011;47267;48.130;-2.040;2023-09-19T08:20:12;4.18;;;1.45;;
61397;SDS011;47267;48.130;-2.040;2023-09-19T08:22:51;4.07;;;1.30;;
61397;SDS011;47267;48.130;-2.040;2023-09-19T08:25:19;3.63;;;1.17;;
61397;SDS011;47267;48.130;-2.040;2023-09-19T08:27:50;3.58;;;1.45;;
61397;SDS011;47267;48.130;-2.040;2023-09-19T08:30:16;5.20;;;1.80;;
61397;SDS011;47267;48.130;-2.040;2023-09-19T08:32:45;3.88;;;1.48;;
61397;SDS011;47267;48.130;-2.040;2023-09-19T08:35:14;5.47;;;1.63;;
61397;SDS011;47267;48.130;-2.040;2023-09-19T08:37:40;3.15;;;1.30;;
61397;SDS011;47267;48.130;-2.040;2023-09-19T08:40:07;5.28;;;1.52;;
61397;SDS011;47267;48.130;-2.040;2023-09-19T08:42:47;3.70;;;1.42;;
61397;SDS011;47267;48.130;-2.040;2023-09-19T08:45:16;4.47;;;1.60;;
61397;SDS011;47267;48.130;-2.040;2023-09-19T08:47:46;4.60;;;1.48;;
61397;SDS011;47267;48.130;-2.040;2023-09-19T08:50:27;4.15;;;1.33;;
61397;SDS011;47267;48.130;-2.040;2023-09-19T08:53:00;5.97;;;1.63;;
61397;SDS011;47267;48.130;-2.040;2023-09-19T08:55:29;3.63;;;1.10;;
61397;SDS011;47267;48.130;-2.040;2023-09-19T08:58:03;3.40;;;1.20;;
61397;SDS011;47267;48.130;-2.040;2023-09-19T09:00:31;5.25;;;1.70;;
61397;SDS011;47267;48.130;-2.040;2023-09-19T09:02:58;4.60;;;1.45;;
61397;SDS011;47267;48.130;-2.040;2023-09-19T09:05:25;5.18;;;1.60;;
61397;SDS011;47267;48.130;-2.040;2023-09-19T09:07:52;4.32;;;1.35;;
61397;SDS011;47267;48.130;-2.040;2023-09-19T09:10:21;4.45;;;1.50;;
61397;SDS011;47267;48.130;-2.040;2023-09-19T09:12:57;4.05;;;1.40;;
61397;SDS011;47267;48.130;-2.040;2023-09-19T09:15:24;3.78;;;1.60;;
61397;SDS011;47267;48.130;-2.040;2023-09-19T09:17:50;5.53;;;1.30;;
61397;SDS011;47267;48.130;-2.040;2023-09-19T09:20:18;3.38;;;1.40;;
61397;SDS011;47267;48.130;-2.040;2023-09-19T09:22:51;3.72;;;1.48;;
61397;SDS011;47267;48.130;-2.040;2023-09-19T09:25:18;2.17;;;1.00;;
61397;SDS011;47267;48.130;-2.040;2023-09-19T09:27:45;4.93;;;1.40;;
61397;SDS011;47267;48.130;-2.040;2023-09-19T09:30:34;3.88;;;1.33;;
61397;SDS011;47267;48.130;-2.040;2023-09-19T09:33:11;3.17;;;1.50;;
61397;SDS011;47267;48.130;-2.040;2023-09-19T09:35:56;5.00;;;1.52;;
61397;SDS011;47267;48.130;-2.040;2023-09-19T09:38:28;3.50;;;1.15;;
61397;SDS011;47267;48.130;-2.040;2023-09-19T09:40:57;3.10;;;1.38;;
61397;SDS011;47267;48.130;-2.040;2023-09-19T09:46:06;4.07;;;1.42;;
61397;SDS011;47267;48.130;-2.040;2023-09-19T09:51:49;3.40;;;1.35;;
61397;SDS011;47267;48.130;-2.040;2023-09-19T09:55:00;4.82;;;1.38;;
61397;SDS011;47267;48.130;-2.040;2023-09-19T09:57:32;3.67;;;0.93;;
61397;SDS011;47267;48.130;-2.040;2023-09-19T09:59:59;5.18;;;1.45;;
61397;SDS011;47267;48.130;-2.040;2023-09-19T10:02:37;3.92;;;1.30;;
61397;SDS011;47267;48.130;-2.040;2023-09-19T10:05:21;4.25;;;1.38;;
61397;SDS011;47267;48.130;-2.040;2023-09-19T10:07:52;3.95;;;1.30;;
61397;SDS011;47267;48.130;-2.040;2023-09-19T10:10:29;4.85;;;1.67;;
61397;SDS011;47267;48.130;-2.040;2023-09-19T10:13:08;6.18;;;1.63;;
61397;SDS011;47267;48.130;-2.040;2023-09-19T10:15:43;4.68;;;1.67;;
61397;SDS011;47267;48.130;-2.040;2023-09-19T10:18:16;3.80;;;1.45;;
61397;SDS011;47267;48.130;-2.040;2023-09-19T10:20:46;5.35;;;1.60;;
61397;SDS011;47267;48.130;-2.040;2023-09-19T10:23:13;3.35;;;1.30;;
61397;SDS011;47267;48.130;-2.040;2023-09-19T10:25:47;4.53;;;1.50;;
61397;SDS011;47267;48.130;-2.040;2023-09-19T10:28:15;5.35;;;1.50;;
61397;SDS011;47267;48.130;-2.040;2023-09-19T10:30:48;4.75;;;1.45;;
61397;SDS011;47267;48.130;-2.040;2023-09-19T10:33:24;7.45;;;1.75;;
61397;SDS011;47267;48.130;-2.040;2023-09-19T10:35:55;6.45;;;1.60;;
61397;SDS011;47267;48.130;-2.040;2023-09-19T10:38:25;5.90;;;1.55;;
61397;SDS011;47267;48.130;-2.040;2023-09-19T10:40:54;5.15;;;1.58;;
61397;SDS011;47267;48.130;-2.040;2023-09-19T10:43:29;3.97;;;1.42;;
61397;SDS011;47267;48.130;-2.040;2023-09-19T10:45:58;6.78;;;1.73;;
61397;SDS011;47267;48.130;-2.040;2023-09-19T10:48:29;4.97;;;1.58;;
61397;SDS011;47267;48.130;-2.040;2023-09-19T10:53:47;4.20;;;1.63;;
61397;SDS011;47267;48.130;-2.040;2023-09-19T10:56:35;3.55;;;1.45;;
61397;SDS011;47267;48.130;-2.040;2023-09-19T10:59:12;5.13;;;1.90;;
61397;SDS011;47267;48.130;-2.040;2023-09-19T11:04:32;4.05;;;1.30;;
61397;SDS011;47267;48.130;-2.040;2023-09-19T11:09:43;3.90;;;1.42;;
61397;SDS011;47267;48.130;-2.040;2023-09-19T11:13:02;5.90;;;1.77;;
61397;SDS011;47267;48.130;-2.040;2023-09-19T11:15:11;5.63;;;1.75;;
61397;SDS011;47267;48.130;-2.040;2023-09-19T11:26:44;5.30;;;1.63;;
61397;SDS011;47267;48.130;-2.040;2023-09-19T11:29:25;5.70;;;1.70;;
61397;SDS011;47267;48.130;-2.040;2023-09-19T11:31:51;6.30;;;1.50;;
61397;SDS011;47267;48.130;-2.040;2023-09-19T11:39:29;5.30;;;1.67;;
61397;SDS011;47267;48.130;-2.040;2023-09-19T11:41:55;4.15;;;1.40;;
61397;SDS011;47267;48.130;-2.040;2023-09-19T11:44:31;5.07;;;1.75;;
61397;SDS011;47267;48.130;-2.040;2023-09-19T11:46:58;4.93;;;1.50;;
61397;SDS011;47267;48.130;-2.040;2023-09-19T11:49:28;4.10;;;1.75;;
61397;SDS011;47267;48.130;-2.040;2023-09-19T11:51:57;4.65;;;1.42;;
61397;SDS011;47267;48.130;-2.040;2023-09-19T11:54:29;6.70;;;1.73;;
61397;SDS011;47267;48.130;-2.040;2023-09-19T11:56:59;5.53;;;1.80;;
61397;SDS011;47267;48.130;-2.040;2023-09-19T11:59:37;4.70;;;1.45;;
61397;SDS011;47267;48.130;-2.040;2023-09-19T12:02:04;4.82;;;1.67;;
61397;SDS011;47267;48.130;-2.040;2023-09-19T12:04:41;5.50;;;1.60;;
61397;SDS011;47267;48.130;-2.040;2023-09-19T12:07:14;6.10;;;2.10;;
61397;SDS011;47267;48.130;-2.040;2023-09-19T12:09:41;4.05;;;1.80;;
61397;SDS011;47267;48.130;-2.040;2023-09-19T12:12:20;4.13;;;1.77;;
61397;SDS011;47267;48.130;-2.040;2023-09-19T12:14:54;6.00;;;2.05;;
61397;SDS011;47267;48.130;-2.040;2023-09-19T12:17:23;4.07;;;1.67;;
61397;SDS011;47267;48.130;-2.040;2023-09-19T12:20:01;5.50;;;1.95;;
61397;SDS011;47267;48.130;-2.040;2023-09-19T12:22:39;5.53;;;1.95;;
61397;SDS011;47267;48.130;-2.040;2023-09-19T12:25:08;5.05;;;1.95;;
61397;SDS011;47267;48.130;-2.040;2023-09-19T12:27:48;5.55;;;2.03;;
61397;SDS011;47267;48.130;-2.040;2023-09-19T12:30:18;6.50;;;1.80;;
61397;SDS011;47267;48.130;-2.040;2023-09-19T12:32:45;4.78;;;1.92;;
61397;SDS011;47267;48.130;-2.040;2023-09-19T12:35:32;3.97;;;1.63;;
61397;SDS011;47267;48.130;-2.040;2023-09-19T12:38:01;6.68;;;1.80;;
61397;SDS011;47267;48.130;-2.040;2023-09-19T12:40:28;4.50;;;2.08;;
61397;SDS011;47267;48.130;-2.040;2023-09-19T12:42:58;3.28;;;1.60;;
61397;SDS011;47267;48.130;-2.040;2023-09-19T12:45:25;5.30;;;2.10;;
61397;SDS011;47267;48.130;-2.040;2023-09-19T12:53:42;4.65;;;1.67;;
61397;SDS011;47267;48.130;-2.040;2023-09-19T12:56:11;4.22;;;1.95;;
61397;SDS011;47267;48.130;-2.040;2023-09-19T12:58:54;5.45;;;2.17;;
61397;SDS011;47267;48.130;-2.040;2023-09-19T13:01:21;5.18;;;1.95;;
61397;SDS011;47267;48.130;-2.040;2023-09-19T13:06:45;4.30;;;1.95;;
61397;SDS011;47267;48.130;-2.040;2023-09-19T13:09:13;5.90;;;2.17;;
61397;SDS011;47267;48.130;-2.040;2023-09-19T13:11:40;6.25;;;1.85;;
61397;SDS011;47267;48.130;-2.040;2023-09-19T13:14:19;5.47;;;1.98;;
61397;SDS011;47267;48.130;-2.040;2023-09-19T13:16:55;4.10;;;2.03;;
61397;SDS011;47267;48.130;-2.040;2023-09-19T13:19:38;6.43;;;1.90;;
61397;SDS011;47267;48.130;-2.040;2023-09-19T13:25:11;4.57;;;1.77;;
61397;SDS011;47267;48.130;-2.040;2023-09-19T13:27:43;3.83;;;1.98;;
61397;SDS011;47267;48.130;-2.040;2023-09-19T13:30:11;5.95;;;2.08;;
61397;SDS011;47267;48.130;-2.040;2023-09-19T13:32:37;4.47;;;2.13;;
61397;SDS011;47267;48.130;-2.040;2023-09-19T13:35:05;5.70;;;2.13;;
61397;SDS011;47267;48.130;-2.040;2023-09-19T13:37:34;5.22;;;2.03;;
61397;SDS011;47267;48.130;-2.040;2023-09-19T13:40:07;6.63;;;2.15;;
61397;SDS011;47267;48.130;-2.040;2023-09-19T13:42:34;5.30;;;2.22;;
61397;SDS011;47267;48.130;-2.040;2023-09-19T13:45:01;4.70;;;2.13;;
61397;SDS011;47267;48.130;-2.040;2023-09-19T13:47:28;4.30;;;2.15;;
61397;SDS011;47267;48.130;-2.040;2023-09-19T13:49:54;5.93;;;1.95;;
61397;SDS011;47267;48.130;-2.040;2023-09-19T13:52:20;5.70;;;2.15;;
61397;SDS011;47267;48.130;-2.040;2023-09-19T13:54:48;5.90;;;2.50;;
61397;SDS011;47267;48.130;-2.040;2023-09-19T13:57:15;5.53;;;2.22;;
61397;SDS011;47267;48.130;-2.040;2023-09-19T13:59:41;5.95;;;1.98;;
61397;SDS011;47267;48.130;-2.040;2023-09-19T14:02:07;5.70;;;1.75;;
61397;SDS011;47267;48.130;-2.040;2023-09-19T14:04:33;4.57;;;2.05;;
61397;SDS011;47267;48.130;-2.040;2023-09-19T14:07:01;7.05;;;2.55;;
61397;SDS011;47267;48.130;-2.040;2023-09-19T14:09:28;5.65;;;2.25;;
61397;SDS011;47267;48.130;-2.040;2023-09-19T14:11:54;5.63;;;2.10;;
61397;SDS011;47267;48.130;-2.040;2023-09-19T14:14:20;7.43;;;2.42;;
61397;SDS011;47267;48.130;-2.040;2023-09-19T14:16:46;6.78;;;2.13;;
61397;SDS011;47267;48.130;-2.040;2023-09-19T14:19:12;6.13;;;2.40;;
61397;SDS011;47267;48.130;-2.040;2023-09-19T14:21:40;4.10;;;2.20;;
61397;SDS011;47267;48.130;-2.040;2023-09-19T14:24:05;5.32;;;2.17;;
61397;SDS011;47267;48.130;-2.040;2023-09-19T14:26:37;5.07;;;2.33;;
61397;SDS011;47267;48.130;-2.040;2023-09-19T14:29:03;4.90;;;2.25;;
61397;SDS011;47267;48.130;-2.040;2023-09-19T14:31:29;6.72;;;2.60;;
61397;SDS011;47267;48.130;-2.040;2023-09-19T14:33:55;7.30;;;2.60;;
61397;SDS011;47267;48.130;-2.040;2023-09-19T14:36:24;5.65;;;2.40;;
61397;SDS011;47267;48.130;-2.040;2023-09-19T14:38:53;4.38;;;2.00;;
61397;SDS011;47267;48.130;-2.040;2023-09-19T14:41:20;5.57;;;2.05;;
61397;SDS011;47267;48.130;-2.040;2023-09-19T14:43:46;4.80;;;2.28;;
61397;SDS011;47267;48.130;-2.040;2023-09-19T14:46:12;5.75;;;2.33;;
61397;SDS011;47267;48.130;-2.040;2023-09-19T14:48:39;5.75;;;2.40;;
61397;SDS011;47267;48.130;-2.040;2023-09-19T14:51:05;3.97;;;2.20;;
61397;SDS011;47267;48.130;-2.040;2023-09-19T14:53:34;9.35;;;2.50;;
61397;SDS011;47267;48.130;-2.040;2023-09-19T14:56:03;5.57;;;2.55;;
61397;SDS011;47267;48.130;-2.040;2023-09-19T14:58:42;5.10;;;2.38;;
61397;SDS011;47267;48.130;-2.040;2023-09-19T15:01:09;5.15;;;2.40;;
61397;SDS011;47267;48.130;-2.040;2023-09-19T15:03:36;5.75;;;2.17;;
61397;SDS011;47267;48.130;-2.040;2023-09-19T15:06:04;6.30;;;3.05;;
61397;SDS011;47267;48.130;-2.040;2023-09-19T15:08:34;4.78;;;2.60;;
61397;SDS011;47267;48.130;-2.040;2023-09-19T15:11:03;6.05;;;2.70;;
61397;SDS011;47267;48.130;-2.040;2023-09-19T15:13:33;7.00;;;2.40;;
61397;SDS011;47267;48.130;-2.040;2023-09-19T15:16:00;5.88;;;2.38;;
61397;SDS011;47267;48.130;-2.040;2023-09-19T15:18:27;4.82;;;2.53;;
61397;SDS011;47267;48.130;-2.040;2023-09-19T15:20:54;5.40;;;2.50;;
61397;SDS011;47267;48.130;-2.040;2023-09-19T15:23:20;5.03;;;2.30;;
61397;SDS011;47267;48.130;-2.040;2023-09-19T15:25:49;5.97;;;2.40;;
61397;SDS011;47267;48.130;-2.040;2023-09-19T15:28:15;5.35;;;2.55;;
61397;SDS011;47267;48.130;-2.040;2023-09-19T15:30:41;6.60;;;2.75;;
61397;SDS011;47267;48.130;-2.040;2023-09-19T15:33:07;4.35;;;2.50;;
61397;SDS011;47267;48.130;-2.040;2023-09-19T15:35:32;8.35;;;3.13;;
61397;SDS011;47267;48.130;-2.040;2023-09-19T15:37:58;6.57;;;2.80;;
61397;SDS011;47267;48.130;-2.040;2023-09-19T15:40:25;4.65;;;2.55;;
61397;SDS011;47267;48.130;-2.040;2023-09-19T15:42:52;6.60;;;2.80;;